Airfield :
LOGIN :

Register | Disclaimer

   EN    FR    IT 

 










Legend :    VFR   Marginal VFR   IFR   Intensive IFR   Very Intensive IFR
Visi :
Ceiling :
>= 8 km
>= 3000ft
5 to 8 km
1000 to 3000 ft
1500m to 5 km
500 to 1000 ft
800 to 1500m
200 to 500 ft
< 800m
< 200 ft
Symbols :   Thunderstorms  Fog  Heavy snow  Heavy precipitations  Wind > 20 kt
SIGMETs :     Misc.  Thunderstorms  Icing  Turbulence  Mountain Waves  Volcanic Ashes






- Airport Elevation : 124 ft
- IATA code : AVN


LFMV - Avignon Caumont

CURRENT METAR :
  • 080800Z AUTO 00000KT 7000 NSC M02/M03 Q1011 TEMPO 0800 FG VV///

EXPIRED METARs :
  • 080730Z AUTO 00000KT 9000 NSC M04/M05 Q1011 TEMPO 0800 FG VV///
  • 080700Z AUTO 08002KT 7000 NSC M04/M05 Q1011 TEMPO 0800 FG VV///
  • 080630Z AUTO 00000KT 6000 NSC M03/M04 Q1011 TEMPO 0800 FG VV///
  • 080600Z AUTO 00000KT 7000 NSC M03/M04 Q1011 TEMPO 0800 FG VV///
  • 080530Z AUTO VRB02KT 8000 NSC M03/M03 Q1011 TEMPO 0800 FG VV///

TAF TAF LFMV
Valid from the 08 at 09:00 until the 09 at 09:00 UTC


080800Z 0809/0909 VRB02KT CAVOK
BECMG 0816/0818 RA
BECMG 0820/0822 11015KT 3000 RA BKN014 OVC030
BECMG 0903/0905 34008KT
BECMG 0905/0907 BKN070
ATIS : +33 4 90 84 32 84



MET'MAP, your aeronautical weather chart ! - Copyright ORBIFLY December 2007 - Disclaimer

ORBIFLY MET'MAP TEAM :

Programming & Development : Alexandra Zaïnal
Original concept : Baudouin d'Aumeries
Technical & hardware support : Manuel Goepfert
Assistance : Marc-Olivier Méhu




SOURCES & CREDITS :

   NOAA